sensor_id;sensor_type;location;lat;lon;timestamp;pressure;altitude;pressure_sealevel;temperature;humidity
74936;BME280;63501;55.570;37.488;2023-10-08T00:02:24;95674.19;;;4.10;81.55
74936;BME280;63501;55.570;37.488;2023-10-08T00:04:56;95683.16;;;4.10;82.09
74936;BME280;63501;55.570;37.488;2023-10-08T00:07:23;95692.19;;;4.20;80.31
74936;BME280;63501;55.570;37.488;2023-10-08T00:09:51;95694.50;;;4.21;80.04
74936;BME280;63501;55.570;37.488;2023-10-08T00:12:18;95680.84;;;4.21;79.41
74936;BME280;63501;55.570;37.488;2023-10-08T00:14:46;95684.75;;;4.20;80.68
74936;BME280;63501;55.570;37.488;2023-10-08T00:17:16;95678.88;;;4.22;79.43
74936;BME280;63501;55.570;37.488;2023-10-08T00:19:45;95674.03;;;4.26;78.43
74936;BME280;63501;55.570;37.488;2023-10-08T00:22:18;95684.75;;;4.20;78.90
74936;BME280;63501;55.570;37.488;2023-10-08T00:24:45;95689.59;;;4.16;78.68
74936;BME280;63501;55.570;37.488;2023-10-08T00:27:14;95703.47;;;4.22;79.26
74936;BME280;63501;55.570;37.488;2023-10-08T00:29:43;95681.03;;;4.27;77.34
74936;BME280;63501;55.570;37.488;2023-10-08T00:32:10;95692.75;;;4.28;77.91
74936;BME280;63501;55.570;37.488;2023-10-08T00:34:41;95703.47;;;4.22;78.98
74936;BME280;63501;55.570;37.488;2023-10-08T00:37:11;95703.13;;;4.20;78.68
74936;BME280;63501;55.570;37.488;2023-10-08T00:39:41;95692.84;;;4.24;78.33
74936;BME280;63501;55.570;37.488;2023-10-08T00:42:09;95706.41;;;4.28;77.67
74936;BME280;63501;55.570;37.488;2023-10-08T00:44:38;95702.38;;;4.19;78.79
74936;BME280;63501;55.570;37.488;2023-10-08T00:47:15;95711.22;;;4.23;77.78
74936;BME280;63501;55.570;37.488;2023-10-08T00:49:43;95720.75;;;4.19;78.22
74936;BME280;63501;55.570;37.488;2023-10-08T00:52:30;95707.41;;;4.21;77.01
74936;BME280;63501;55.570;37.488;2023-10-08T00:55:08;95705.66;;;4.14;77.34
74936;BME280;63501;55.570;37.488;2023-10-08T00:57:40;95687.94;;;4.19;77.22
74936;BME280;63501;55.570;37.488;2023-10-08T01:00:13;95699.09;;;4.12;77.46
74936;BME280;63501;55.570;37.488;2023-10-08T01:02:47;95713.31;;;4.19;76.48
74936;BME280;63501;55.570;37.488;2023-10-08T01:05:20;95712.22;;;4.17;75.55
74936;BME280;63501;55.570;37.488;2023-10-08T01:07:55;95709.94;;;4.15;75.36
74936;BME280;63501;55.570;37.488;2023-10-08T01:10:24;95697.59;;;4.11;76.08
74936;BME280;63501;55.570;37.488;2023-10-08T01:12:51;95709.59;;;4.13;75.13
74936;BME280;63501;55.570;37.488;2023-10-08T01:15:30;95707.84;;;4.07;75.14
74936;BME280;63501;55.570;37.488;2023-10-08T01:18:01;95692.97;;;4.08;75.30
74936;BME280;63501;55.570;37.488;2023-10-08T01:20:30;95677.91;;;4.03;74.88
74936;BME280;63501;55.570;37.488;2023-10-08T01:23:03;95686.53;;;4.02;74.79
74936;BME280;63501;55.570;37.488;2023-10-08T01:25:36;95708.09;;;4.00;75.10
74936;BME280;63501;55.570;37.488;2023-10-08T01:28:04;95693.00;;;3.95;74.98
74936;BME280;63501;55.570;37.488;2023-10-08T01:30:35;95706.22;;;3.96;75.36
74936;BME280;63501;55.570;37.488;2023-10-08T01:33:08;95705.69;;;4.02;75.03
74936;BME280;63501;55.570;37.488;2023-10-08T01:35:39;95682.72;;;3.99;75.35
74936;BME280;63501;55.570;37.488;2023-10-08T01:38:08;95697.72;;;3.94;75.45
74936;BME280;63501;55.570;37.488;2023-10-08T01:40:42;95698.78;;;3.97;74.07
74936;BME280;63501;55.570;37.488;2023-10-08T01:43:16;95711.81;;;3.93;74.02
74936;BME280;63501;55.570;37.488;2023-10-08T01:45:43;95694.31;;;3.90;73.99
74936;BME280;63501;55.570;37.488;2023-10-08T01:48:14;95686.44;;;3.80;74.61
74936;BME280;63501;55.570;37.488;2023-10-08T01:50:46;95686.34;;;3.83;74.40
74936;BME280;63501;55.570;37.488;2023-10-08T01:53:15;95681.53;;;3.87;72.91
74936;BME280;63501;55.570;37.488;2023-10-08T01:55:42;95701.22;;;3.82;73.17
74936;BME280;63501;55.570;37.488;2023-10-08T01:58:15;95702.53;;;3.78;73.48
74936;BME280;63501;55.570;37.488;2023-10-08T02:00:43;95706.34;;;3.80;72.44
74936;BME280;63501;55.570;37.488;2023-10-08T02:03:11;95688.66;;;3.72;72.26
74936;BME280;63501;55.570;37.488;2023-10-08T02:05:41;95684.50;;;3.67;72.74
74936;BME280;63501;55.570;37.488;2023-10-08T02:08:09;95696.50;;;3.70;73.35
74936;BME280;63501;55.570;37.488;2023-10-08T02:10:38;95700.13;;;3.67;73.15
74936;BME280;63501;55.570;37.488;2023-10-08T02:13:07;95686.47;;;3.67;72.56
74936;BME280;63501;55.570;37.488;2023-10-08T02:15:35;95694.66;;;3.67;72.46
74936;BME280;63501;55.570;37.488;2023-10-08T02:18:04;95685.78;;;3.63;72.40
74936;BME280;63501;55.570;37.488;2023-10-08T02:20:32;95711.81;;;3.67;72.32
74936;BME280;63501;55.570;37.488;2023-10-08T02:22:59;95694.13;;;3.59;73.10
74936;BME280;63501;55.570;37.488;2023-10-08T02:25:27;95695.75;;;3.57;73.00
74936;BME280;63501;55.570;37.488;2023-10-08T02:27:55;95673.56;;;3.55;72.79
74936;BME280;63501;55.570;37.488;2023-10-08T02:30:23;95715.06;;;3.50;72.76
74936;BME280;63501;55.570;37.488;2023-10-08T02:32:50;95698.91;;;3.55;72.08
74936;BME280;63501;55.570;37.488;2023-10-08T02:35:18;95683.50;;;3.49;72.57
74936;BME280;63501;55.570;37.488;2023-10-08T02:37:45;95690.38;;;3.40;73.39
74936;BME280;63501;55.570;37.488;2023-10-08T02:40:12;95707.09;;;3.42;73.07
74936;BME280;63501;55.570;37.488;2023-10-08T02:42:51;95710.59;;;3.43;73.16
74936;BME280;63501;55.570;37.488;2023-10-08T02:45:25;95701.41;;;3.37;72.81
74936;BME280;63501;55.570;37.488;2023-10-08T02:47:52;95700.22;;;3.38;73.14
74936;BME280;63501;55.570;37.488;2023-10-08T02:50:20;95702.50;;;3.39;73.02
74936;BME280;63501;55.570;37.488;2023-10-08T02:52:48;95698.69;;;3.37;72.40
74936;BME280;63501;55.570;37.488;2023-10-08T02:55:16;95692.56;;;3.33;73.49
74936;BME280;63501;55.570;37.488;2023-10-08T02:57:54;95703.56;;;3.29;73.46
74936;BME280;63501;55.570;37.488;2023-10-08T03:00:22;95723.97;;;3.25;72.95
74936;BME280;63501;55.570;37.488;2023-10-08T03:02:57;95695.59;;;3.22;73.79
74936;BME280;63501;55.570;37.488;2023-10-08T03:05:27;95691.97;;;3.25;72.53
74936;BME280;63501;55.570;37.488;2023-10-08T03:08:01;95689.16;;;3.16;73.72
74936;BME280;63501;55.570;37.488;2023-10-08T03:10:28;95684.69;;;3.22;73.67
74936;BME280;63501;55.570;37.488;2023-10-08T03:12:59;95701.16;;;3.18;73.77
74936;BME280;63501;55.570;37.488;2023-10-08T03:15:30;95685.13;;;3.21;73.49
74936;BME280;63501;55.570;37.488;2023-10-08T03:18:06;95687.19;;;3.29;72.64
74936;BME280;63501;55.570;37.488;2023-10-08T03:20:40;95688.06;;;3.26;72.08
74936;BME280;63501;55.570;37.488;2023-10-08T03:23:12;95707.50;;;3.28;72.58
74936;BME280;63501;55.570;37.488;2023-10-08T03:25:52;95684.03;;;3.31;72.38
74936;BME280;63501;55.570;37.488;2023-10-08T03:28:25;95691.03;;;3.32;72.42
74936;BME280;63501;55.570;37.488;2023-10-08T03:30:53;95697.25;;;3.32;72.23
74936;BME280;63501;55.570;37.488;2023-10-08T03:33:31;95699.31;;;3.28;72.41
74936;BME280;63501;55.570;37.488;2023-10-08T03:36:02;95697.34;;;3.29;72.21
74936;BME280;63501;55.570;37.488;2023-10-08T03:38:36;95698.13;;;3.29;72.51
74936;BME280;63501;55.570;37.488;2023-10-08T03:41:22;95697.13;;;3.36;72.01
74936;BME280;63501;55.570;37.488;2023-10-08T03:43:53;95701.97;;;3.32;71.74
74936;BME280;63501;55.570;37.488;2023-10-08T03:46:27;95709.16;;;3.26;72.21
74936;BME280;63501;55.570;37.488;2023-10-08T03:48:56;95684.38;;;3.33;71.07
74936;BME280;63501;55.570;37.488;2023-10-08T03:51:23;95683.25;;;3.30;71.79
74936;BME280;63501;55.570;37.488;2023-10-08T03:53:53;95697.56;;;3.34;71.74
74936;BME280;63501;55.570;37.488;2023-10-08T03:56:41;95672.16;;;3.37;70.94
74936;BME280;63501;55.570;37.488;2023-10-08T03:59:11;95698.78;;;3.33;71.88
74936;BME280;63501;55.570;37.488;2023-10-08T04:01:40;95693.22;;;3.37;71.21
74936;BME280;63501;55.570;37.488;2023-10-08T04:04:09;95691.56;;;3.39;71.09
74936;BME280;63501;55.570;37.488;2023-10-08T04:06:40;95692.66;;;3.42;70.87
74936;BME280;63501;55.570;37.488;2023-10-08T04:09:14;95691.25;;;3.37;71.18
74936;BME280;63501;55.570;37.488;2023-10-08T04:11:50;95721.81;;;3.32;70.46
74936;BME280;63501;55.570;37.488;2023-10-08T04:14:22;95701.06;;;3.35;70.67
74936;BME280;63501;55.570;37.488;2023-10-08T04:16:50;95705.31;;;3.23;71.31
74936;BME280;63501;55.570;37.488;2023-10-08T04:19:21;95673.75;;;3.09;72.20
74936;BME280;63501;55.570;37.488;2023-10-08T04:21:52;95715.97;;;3.05;72.74
74936;BME280;63501;55.570;37.488;2023-10-08T04:24:21;95710.81;;;2.94;74.25
74936;BME280;63501;55.570;37.488;2023-10-08T04:26:55;95719.13;;;2.74;74.45
74936;BME280;63501;55.570;37.488;2023-10-08T04:29:27;95717.88;;;2.62;75.97
74936;BME280;63501;55.570;37.488;2023-10-08T04:31:58;95709.69;;;2.62;75.63
74936;BME280;63501;55.570;37.488;2023-10-08T04:34:35;95706.88;;;2.66;74.73
74936;BME280;63501;55.570;37.488;2023-10-08T04:37:02;95717.16;;;2.75;74.51
74936;BME280;63501;55.570;37.488;2023-10-08T04:39:37;95716.56;;;2.83;74.12
74936;BME280;63501;55.570;37.488;2023-10-08T04:42:06;95713.38;;;2.85;73.25
74936;BME280;63501;55.570;37.488;2023-10-08T04:44:39;95720.84;;;2.97;72.70
74936;BME280;63501;55.570;37.488;2023-10-08T04:47:07;95706.59;;;3.06;72.26
74936;BME280;63501;55.570;37.488;2023-10-08T04:49:36;95713.91;;;3.09;72.32
74936;BME280;63501;55.570;37.488;2023-10-08T04:52:11;95716.53;;;3.12;72.43
74936;BME280;63501;55.570;37.488;2023-10-08T04:54:41;95718.50;;;3.12;72.57
74936;BME280;63501;55.570;37.488;2023-10-08T04:57:17;95704.63;;;3.19;72.52
74936;BME280;63501;55.570;37.488;2023-10-08T04:59:48;95722.66;;;3.16;71.65
74936;BME280;63501;55.570;37.488;2023-10-08T05:02:16;95714.25;;;3.11;72.10
74936;BME280;63501;55.570;37.488;2023-10-08T05:04:50;95713.34;;;3.01;73.22
74936;BME280;63501;55.570;37.488;2023-10-08T05:07:47;95719.75;;;2.95;73.96
74936;BME280;63501;55.570;37.488;2023-10-08T05:10:31;95729.16;;;2.94;73.70
74936;BME280;63501;55.570;37.488;2023-10-08T05:13:16;95717.72;;;2.99;74.38
74936;BME280;63501;55.570;37.488;2023-10-08T05:15:44;95741.38;;;3.02;74.12
74936;BME280;63501;55.570;37.488;2023-10-08T05:18:28;95731.16;;;3.06;74.15
74936;BME280;63501;55.570;37.488;2023-10-08T05:21:17;95743.25;;;3.05;74.44
74936;BME280;63501;55.570;37.488;2023-10-08T05:23:52;95713.03;;;3.12;73.56
74936;BME280;63501;55.570;37.488;2023-10-08T05:26:41;95735.06;;;3.05;73.98
74936;BME280;63501;55.570;37.488;2023-10-08T05:29:15;95738.47;;;3.09;73.86
74936;BME280;63501;55.570;37.488;2023-10-08T05:31:59;95763.56;;;3.04;74.24
74936;BME280;63501;55.570;37.488;2023-10-08T05:34:40;95738.53;;;2.92;74.53
74936;BME280;63501;55.570;37.488;2023-10-08T05:37:18;95746.13;;;2.85;74.37
74936;BME280;63501;55.570;37.488;2023-10-08T05:40:08;95768.06;;;2.81;74.32
74936;BME280;63501;55.570;37.488;2023-10-08T05:42:46;95736.69;;;2.73;74.81
74936;BME280;63501;55.570;37.488;2023-10-08T05:45:14;95757.31;;;2.74;75.66
74936;BME280;63501;55.570;37.488;2023-10-08T05:47:54;95756.66;;;2.70;75.42
74936;BME280;63501;55.570;37.488;2023-10-08T05:50:33;95759.91;;;2.65;75.45
74936;BME280;63501;55.570;37.488;2023-10-08T05:53:23;95738.50;;;2.63;75.36
74936;BME280;63501;55.570;37.488;2023-10-08T05:56:08;95767.06;;;2.75;75.44
74936;BME280;63501;55.570;37.488;2023-10-08T05:58:53;95758.16;;;2.87;74.13
74936;BME280;63501;55.570;37.488;2023-10-08T06:01:39;95751.31;;;2.96;73.49
74936;BME280;63501;55.570;37.488;2023-10-08T06:04:07;95750.34;;;3.02;72.93
74936;BME280;63501;55.570;37.488;2023-10-08T06:06:56;95744.59;;;3.13;72.29
74936;BME280;63501;55.570;37.488;2023-10-08T06:09:39;95763.06;;;3.22;71.16
74936;BME280;63501;55.570;37.488;2023-10-08T06:12:05;95756.19;;;3.17;70.32
74936;BME280;63501;55.570;37.488;2023-10-08T06:14:37;95753.44;;;3.17;69.54
74936;BME280;63501;55.570;37.488;2023-10-08T06:17:32;95749.06;;;3.19;69.96
74936;BME280;63501;55.570;37.488;2023-10-08T06:20:22;95742.00;;;3.22;69.54
74936;BME280;63501;55.570;37.488;2023-10-08T06:22:51;95760.22;;;3.25;69.30
74936;BME280;63501;55.570;37.488;2023-10-08T06:25:20;95767.47;;;3.32;69.52
74936;BME280;63501;55.570;37.488;2023-10-08T06:27:49;95768.03;;;3.39;68.94
74936;BME280;63501;55.570;37.488;2023-10-08T06:30:19;95756.34;;;3.39;68.13
74936;BME280;63501;55.570;37.488;2023-10-08T06:32:46;95770.81;;;3.23;69.16
74936;BME280;63501;55.570;37.488;2023-10-08T06:35:15;95772.22;;;3.15;69.35
74936;BME280;63501;55.570;37.488;2023-10-08T06:37:44;95796.88;;;3.11;69.93
74936;BME280;63501;55.570;37.488;2023-10-08T06:40:11;95779.06;;;3.07;70.46
74936;BME280;63501;55.570;37.488;2023-10-08T06:43:00;95778.59;;;2.96;70.43
74936;BME280;63501;55.570;37.488;2023-10-08T06:45:36;95786.97;;;2.88;71.54
74936;BME280;63501;55.570;37.488;2023-10-08T06:48:05;95782.75;;;2.71;73.21
74936;BME280;63501;55.570;37.488;2023-10-08T06:50:32;95793.84;;;2.64;73.20
74936;BME280;63501;55.570;37.488;2023-10-08T06:53:00;95783.00;;;2.60;74.06
74936;BME280;63501;55.570;37.488;2023-10-08T06:55:31;95804.06;;;2.60;72.91
74936;BME280;63501;55.570;37.488;2023-10-08T06:58:00;95778.66;;;2.47;73.02
74936;BME280;63501;55.570;37.488;2023-10-08T07:00:28;95787.97;;;2.33;73.71
74936;BME280;63501;55.570;37.488;2023-10-08T07:03:05;95793.75;;;2.35;74.57
74936;BME280;63501;55.570;37.488;2023-10-08T07:05:33;95790.44;;;2.44;73.83
74936;BME280;63501;55.570;37.488;2023-10-08T07:08:01;95793.41;;;2.49;73.80
74936;BME280;63501;55.570;37.488;2023-10-08T07:10:32;95797.75;;;2.47;74.06
74936;BME280;63501;55.570;37.488;2023-10-08T07:13:00;95795.81;;;2.47;74.30
74936;BME280;63501;55.570;37.488;2023-10-08T07:15:29;95818.72;;;2.50;73.30
74936;BME280;63501;55.570;37.488;2023-10-08T07:17:56;95804.91;;;2.41;74.39
74936;BME280;63501;55.570;37.488;2023-10-08T07:20:24;95811.41;;;2.30;75.11
74936;BME280;63501;55.570;37.488;2023-10-08T07:22:51;95804.13;;;2.24;75.37
74936;BME280;63501;55.570;37.488;2023-10-08T07:25:20;95803.88;;;2.18;76.94
74936;BME280;63501;55.570;37.488;2023-10-08T07:27:47;95823.13;;;2.11;77.40
74936;BME280;63501;55.570;37.488;2023-10-08T07:30:16;95822.78;;;2.09;78.08
74936;BME280;63501;55.570;37.488;2023-10-08T07:32:52;95813.47;;;2.06;78.36
74936;BME280;63501;55.570;37.488;2023-10-08T07:35:19;95835.22;;;2.10;78.77
74936;BME280;63501;55.570;37.488;2023-10-08T07:37:51;95815.53;;;2.02;78.56
74936;BME280;63501;55.570;37.488;2023-10-08T07:40:19;95818.66;;;2.01;78.37
74936;BME280;63501;55.570;37.488;2023-10-08T07:42:46;95804.28;;;2.00;79.05
74936;BME280;63501;55.570;37.488;2023-10-08T07:45:18;95815.94;;;2.01;79.42
74936;BME280;63501;55.570;37.488;2023-10-08T07:47:47;95816.56;;;2.08;78.98
74936;BME280;63501;55.570;37.488;2023-10-08T07:50:14;95805.06;;;2.17;78.29
74936;BME280;63501;55.570;37.488;2023-10-08T07:52:41;95808.06;;;2.23;77.02
74936;BME280;63501;55.570;37.488;2023-10-08T07:55:09;95800.25;;;2.25;77.26
74936;BME280;63501;55.570;37.488;2023-10-08T07:57:42;95805.34;;;2.39;75.33
74936;BME280;63501;55.570;37.488;2023-10-08T08:00:10;95809.25;;;2.38;75.06
74936;BME280;63501;55.570;37.488;2023-10-08T08:02:48;95824.50;;;2.35;75.00
74936;BME280;63501;55.570;37.488;2023-10-08T08:05:17;95822.13;;;2.37;74.42
74936;BME280;63501;55.570;37.488;2023-10-08T08:07:44;95820.84;;;2.42;75.25
74936;BME280;63501;55.570;37.488;2023-10-08T08:10:12;95834.47;;;2.42;74.43
74936;BME280;63501;55.570;37.488;2023-10-08T08:13:07;95824.94;;;2.34;74.56
74936;BME280;63501;55.570;37.488;2023-10-08T08:15:34;95853.03;;;2.31;73.66
74936;BME280;63501;55.570;37.488;2023-10-08T08:18:07;95834.22;;;2.20;74.13
74936;BME280;63501;55.570;37.488;2023-10-08T08:20:44;95849.03;;;2.19;73.69
74936;BME280;63501;55.570;37.488;2023-10-08T08:23:12;95837.44;;;2.15;72.74
74936;BME280;63501;55.570;37.488;2023-10-08T08:25:41;95868.50;;;2.18;73.12
74936;BME280;63501;55.570;37.488;2023-10-08T08:28:32;95838.66;;;2.30;72.26
74936;BME280;63501;55.570;37.488;2023-10-08T08:31:01;95861.06;;;2.38;72.23
74936;BME280;63501;55.570;37.488;2023-10-08T08:33:31;95851.09;;;2.48;70.90
74936;BME280;63501;55.570;37.488;2023-10-08T08:36:18;95859.81;;;2.59;71.17
74936;BME280;63501;55.570;37.488;2023-10-08T08:38:44;95838.75;;;2.76;69.56
74936;BME280;63501;55.570;37.488;2023-10-08T08:41:12;95850.41;;;2.76;69.60
74936;BME280;63501;55.570;37.488;2023-10-08T08:43:43;95842.88;;;2.80;69.01
74936;BME280;63501;55.570;37.488;2023-10-08T08:46:10;95852.03;;;2.74;69.39
74936;BME280;63501;55.570;37.488;2023-10-08T08:48:39;95865.75;;;2.70;69.46
74936;BME280;63501;55.570;37.488;2023-10-08T08:51:07;95859.94;;;2.68;70.05
74936;BME280;63501;55.570;37.488;2023-10-08T08:53:34;95864.22;;;2.69;69.73
74936;BME280;63501;55.570;37.488;2023-10-08T08:56:01;95868.81;;;2.72;69.59
74936;BME280;63501;55.570;37.488;2023-10-08T08:58:30;95859.53;;;2.70;68.79
74936;BME280;63501;55.570;37.488;2023-10-08T09:00:57;95846.50;;;2.77;69.28
74936;BME280;63501;55.570;37.488;2023-10-08T09:03:24;95850.66;;;2.98;68.72
74936;BME280;63501;55.570;37.488;2023-10-08T09:05:57;95855.91;;;3.05;69.09
74936;BME280;63501;55.570;37.488;2023-10-08T09:08:27;95858.22;;;3.07;68.75
74936;BME280;63501;55.570;37.488;2023-10-08T09:10:57;95880.47;;;3.05;69.11
74936;BME280;63501;55.570;37.488;2023-10-08T09:16:02;95858.66;;;3.05;68.78
74936;BME280;63501;55.570;37.488;2023-10-08T09:18:30;95865.81;;;3.15;67.47
74936;BME280;63501;55.570;37.488;2023-10-08T09:21:07;95870.88;;;3.59;66.28
74936;BME280;63501;55.570;37.488;2023-10-08T09:23:39;95856.38;;;3.62;66.63
74936;BME280;63501;55.570;37.488;2023-10-08T09:26:08;95865.78;;;4.15;64.92
74936;BME280;63501;55.570;37.488;2023-10-08T09:28:35;95861.06;;;4.41;62.43
74936;BME280;63501;55.570;37.488;2023-10-08T09:31:04;95866.88;;;4.56;62.53
74936;BME280;63501;55.570;37.488;2023-10-08T09:33:32;95839.81;;;4.71;60.78
74936;BME280;63501;55.570;37.488;2023-10-08T09:35:59;95861.59;;;4.62;61.29
74936;BME280;63501;55.570;37.488;2023-10-08T09:38:29;95890.69;;;4.43;62.32
74936;BME280;63501;55.570;37.488;2023-10-08T09:40:57;95883.88;;;4.09;62.24
74936;BME280;63501;55.570;37.488;2023-10-08T09:43:26;95865.63;;;3.93;63.60
74936;BME280;63501;55.570;37.488;2023-10-08T09:45:54;95883.13;;;3.96;62.79
74936;BME280;63501;55.570;37.488;2023-10-08T09:48:22;95889.69;;;3.69;63.54
74936;BME280;63501;55.570;37.488;2023-10-08T09:50:52;95901.50;;;3.37;65.65
74936;BME280;63501;55.570;37.488;2023-10-08T09:53:22;95891.38;;;3.22;66.74
74936;BME280;63501;55.570;37.488;2023-10-08T09:55:54;95886.59;;;3.26;67.28
74936;BME280;63501;55.570;37.488;2023-10-08T09:58:21;95893.91;;;3.29;66.60
74936;BME280;63501;55.570;37.488;2023-10-08T10:00:49;95899.25;;;3.49;67.39
74936;BME280;63501;55.570;37.488;2023-10-08T10:03:17;95934.25;;;3.54;66.80
74936;BME280;63501;55.570;37.488;2023-10-08T10:05:47;95882.47;;;3.34;67.93
74936;BME280;63501;55.570;37.488;2023-10-08T10:08:14;95918.19;;;2.94;68.69
74936;BME280;63501;55.570;37.488;2023-10-08T10:10:41;95906.91;;;2.59;70.65
74936;BME280;63501;55.570;37.488;2023-10-08T10:13:16;95915.25;;;2.52;71.58
74936;BME280;63501;55.570;37.488;2023-10-08T10:15:43;95925.38;;;2.52;73.86
74936;BME280;63501;55.570;37.488;2023-10-08T10:18:12;95910.97;;;2.35;73.69
74936;BME280;63501;55.570;37.488;2023-10-08T10:20:40;95928.47;;;2.18;76.19
74936;BME280;63501;55.570;37.488;2023-10-08T10:23:34;95926.59;;;2.15;76.33
74936;BME280;63501;55.570;37.488;2023-10-08T10:26:01;95925.25;;;2.23;75.05
74936;BME280;63501;55.570;37.488;2023-10-08T10:28:30;95929.16;;;2.22;75.45
74936;BME280;63501;55.570;37.488;2023-10-08T10:30:58;95934.63;;;2.22;75.65
74936;BME280;63501;55.570;37.488;2023-10-08T10:33:32;95919.06;;;2.38;75.63
74936;BME280;63501;55.570;37.488;2023-10-08T10:36:01;95918.31;;;2.38;76.04
74936;BME280;63501;55.570;37.488;2023-10-08T10:38:31;95916.34;;;2.38;76.27
74936;BME280;63501;55.570;37.488;2023-10-08T10:40:59;95931.66;;;2.32;76.19
74936;BME280;63501;55.570;37.488;2023-10-08T10:43:34;95931.69;;;2.12;76.95
74936;BME280;63501;55.570;37.488;2023-10-08T10:46:02;95928.28;;;1.89;79.35
74936;BME280;63501;55.570;37.488;2023-10-08T10:48:50;95943.22;;;1.61;81.31
74936;BME280;63501;55.570;37.488;2023-10-08T10:51:30;95940.84;;;1.43;82.57
74936;BME280;63501;55.570;37.488;2023-10-08T10:53:59;95957.31;;;1.36;83.23
74936;BME280;63501;55.570;37.488;2023-10-08T10:56:34;95939.97;;;1.26;84.45
74936;BME280;63501;55.570;37.488;2023-10-08T10:59:08;95956.75;;;1.21;84.16
74936;BME280;63501;55.570;37.488;2023-10-08T11:01:45;95925.00;;;1.14;84.26
74936;BME280;63501;55.570;37.488;2023-10-08T11:04:18;95940.63;;;1.10;85.41
74936;BME280;63501;55.570;37.488;2023-10-08T11:06:51;95944.19;;;1.07;85.84
74936;BME280;63501;55.570;37.488;2023-10-08T11:09:22;95966.34;;;1.05;86.34
74936;BME280;63501;55.570;37.488;2023-10-08T11:12:01;95950.38;;;1.08;86.52
74936;BME280;63501;55.570;37.488;2023-10-08T11:14:38;95963.91;;;1.11;85.37
74936;BME280;63501;55.570;37.488;2023-10-08T11:17:11;95968.75;;;1.00;86.38
74936;BME280;63501;55.570;37.488;2023-10-08T11:19:41;95950.00;;;1.05;87.41
74936;BME280;63501;55.570;37.488;2023-10-08T11:22:12;95930.44;;;1.14;87.11
74936;BME280;63501;55.570;37.488;2023-10-08T11:24:43;95965.56;;;1.05;86.16
74936;BME280;63501;55.570;37.488;2023-10-08T11:27:14;95961.13;;;0.91;86.76
74936;BME280;63501;55.570;37.488;2023-10-08T11:29:56;95960.28;;;0.94;87.26
74936;BME280;63501;55.570;37.488;2023-10-08T11:32:24;95941.25;;;0.94;86.65
74936;BME280;63501;55.570;37.488;2023-10-08T11:34:55;95905.97;;;0.91;87.32
74936;BME280;63501;55.570;37.488;2023-10-08T11:37:28;95952.72;;;0.82;87.43
74936;BME280;63501;55.570;37.488;2023-10-08T11:39:55;95942.31;;;0.77;88.41
74936;BME280;63501;55.570;37.488;2023-10-08T11:42:24;95962.13;;;0.77;88.78
74936;BME280;63501;55.570;37.488;2023-10-08T11:45:11;95938.78;;;0.80;89.23
74936;BME280;63501;55.570;37.488;2023-10-08T11:47:45;95955.78;;;0.84;89.68
74936;BME280;63501;55.570;37.488;2023-10-08T11:50:14;95957.81;;;0.80;89.84
74936;BME280;63501;55.570;37.488;2023-10-08T11:52:45;95927.94;;;0.76;89.88
74936;BME280;63501;55.570;37.488;2023-10-08T11:55:12;95957.50;;;0.74;90.06
74936;BME280;63501;55.570;37.488;2023-10-08T11:57:46;95943.16;;;0.74;90.74
74936;BME280;63501;55.570;37.488;2023-10-08T12:00:16;95949.44;;;0.67;90.59
74936;BME280;63501;55.570;37.488;2023-10-08T12:02:46;95956.78;;;0.70;90.83
74936;BME280;63501;55.570;37.488;2023-10-08T12:05:13;95935.84;;;0.67;91.19
74936;BME280;63501;55.570;37.488;2023-10-08T12:07:46;95952.66;;;0.62;91.09
74936;BME280;63501;55.570;37.488;2023-10-08T12:10:13;95946.72;;;0.67;91.48
74936;BME280;63501;55.570;37.488;2023-10-08T12:12:42;95951.03;;;0.65;91.53
74936;BME280;63501;55.570;37.488;2023-10-08T12:15:11;95943.66;;;0.65;91.63
74936;BME280;63501;55.570;37.488;2023-10-08T12:17:47;95949.56;;;0.60;91.02
74936;BME280;63501;55.570;37.488;2023-10-08T12:20:37;95949.97;;;0.59;91.51
74936;BME280;63501;55.570;37.488;2023-10-08T12:23:05;95941.09;;;0.55;91.57
74936;BME280;63501;55.570;37.488;2023-10-08T12:25:36;95943.16;;;0.47;91.55
74936;BME280;63501;55.570;37.488;2023-10-08T12:28:04;95951.75;;;0.42;91.76
74936;BME280;63501;55.570;37.488;2023-10-08T12:30:32;95952.50;;;0.46;92.61
74936;BME280;63501;55.570;37.488;2023-10-08T12:33:08;95956.00;;;0.43;92.24
74936;BME280;63501;55.570;37.488;2023-10-08T12:35:39;95949.91;;;0.35;92.36
74936;BME280;63501;55.570;37.488;2023-10-08T12:38:06;95948.38;;;0.34;92.55
74936;BME280;63501;55.570;37.488;2023-10-08T12:40:35;95941.00;;;0.35;92.76
74936;BME280;63501;55.570;37.488;2023-10-08T12:43:13;95954.97;;;0.33;92.72
74936;BME280;63501;55.570;37.488;2023-10-08T12:45:45;95945.03;;;0.23;93.03
74936;BME280;63501;55.570;37.488;2023-10-08T12:48:23;95961.34;;;0.23;93.06
74936;BME280;63501;55.570;37.488;2023-10-08T12:50:52;95984.56;;;0.28;92.96
74936;BME280;63501;55.570;37.488;2023-10-08T12:53:22;95927.09;;;0.29;92.90
74936;BME280;63501;55.570;37.488;2023-10-08T12:55:59;95949.59;;;0.30;93.14
74936;BME280;63501;55.570;37.488;2023-10-08T12:58:31;95933.19;;;0.37;93.24
74936;BME280;63501;55.570;37.488;2023-10-08T13:01:05;95958.00;;;0.39;93.22
74936;BME280;63501;55.570;37.488;2023-10-08T13:03:34;95959.19;;;0.38;93.08
74936;BME280;63501;55.570;37.488;2023-10-08T13:06:07;95941.78;;;0.35;93.44
74936;BME280;63501;55.570;37.488;2023-10-08T13:08:37;95943.34;;;0.33;93.16
74936;BME280;63501;55.570;37.488;2023-10-08T13:11:05;95944.50;;;0.35;93.22
74936;BME280;63501;55.570;37.488;2023-10-08T13:13:32;95937.81;;;0.40;93.65
74936;BME280;63501;55.570;37.488;2023-10-08T13:16:00;95937.13;;;0.32;93.42
74936;BME280;63501;55.570;37.488;2023-10-08T13:18:34;95945.72;;;0.31;93.34
74936;BME280;63501;55.570;37.488;2023-10-08T13:21:03;95943.34;;;0.33;93.75
74936;BME280;63501;55.570;37.488;2023-10-08T13:23:32;95957.03;;;0.25;93.38
74936;BME280;63501;55.570;37.488;2023-10-08T13:26:01;95939.28;;;0.17;93.57
74936;BME280;63501;55.570;37.488;2023-10-08T13:28:40;95945.56;;;0.11;93.46